MSC Mara — V7NF9 — position and weather

sailwx.info

Track history (hours):
 
Tides and Currents Weather Stations Pressure Air Temp Water Temp Dewpoint Dewpoint Depression Visibility Wind Speed Wind Dir Waves Ship Positions

MSC Mara

Last reported at 2015-May-03 17:29 UTC. Time now 2015-May-04 11:02 UTC.
Position S 37°19' E 150°21'.

Length 294 m; draft 9.5 m.

Type: Ship (hazmat cat C). MMSI: 538002955.

Date/timePositionNaut miles runAvg speedWind from/ knotsBaromVisibWave heightAir tempDewpointWater temp
2015-May-03 17:29S 37°19' E 150°21'1312.2
2015-May-03 16:24S 37°32' E 150°16'1112.1
2015-May-03 15:28S 37°40' E 150°07'1112.5
2015-May-03 14:33S 37°48' E 149°56'1312.9
2015-May-03 13:32S 37°56' E 149°43'2712.4
2015-May-03 11:19S 38°12' E 149°15'2212.7
2015-May-03 09:34S 38°25' E 148°52'1413.0
2015-May-03 08:29S 38°34' E 148°38'1213.0
2015-May-03 07:33S 38°41' E 148°25'2713.2
2015-May-03 05:32S 38°53' E 147°54'1713.8
2015-May-03 04:16S 38°59' E 147°33'2313.6
2015-May-03 02:34S 39°07' E 147°05'1313.0
2015-May-03 01:33S 39°12' E 146°50'1312.9
2015-May-03 00:33S 39°17' E 146°34'1212.5
2015-May-02 23:34S 39°17' E 146°18'1212.4
2015-May-02 22:34S 39°16' E 146°02'1312.8
2015-May-02 21:33S 39°09' E 145°48'79 1.8
2015-May-01 02:20S 38°29' E 144°22'912.0
2015-May-01 01:33S 38°35' E 144°13'1211.9
2015-May-01 00:33S 38°43' E 144°01'1211.8
2015-Apr-30 23:32S 38°51' E 143°50'1111.4
2015-Apr-30 22:33S 38°57' E 143°38'1212.0
2015-Apr-30 21:33S 38°58' E 143°22'1212.0
2015-Apr-30 20:33S 38°60' E 143°07'1312.1
2015-Apr-30 19:31S 39°02' E 142°51'1212.6
2015-Apr-30 18:33S 39°04' E 142°36'1612.2
2015-Apr-30 17:15S 39°07' E 142°15'811.4
2015-Apr-30 16:33S 39°08' E 142°05'1212.0
2015-Apr-30 15:33S 39°09' E 141°50'1312.0
2015-Apr-30 14:30S 39°12' E 141°34'2411.9
2015-Apr-30 12:28S 39°17' E 141°03'  
Track history (hours):
 
Tides and Currents Weather Stations Pressure Air Temp Water Temp Dewpoint Dewpoint Depression Visibility Wind Speed Wind Dir Waves Ship Positions

MSC Mara

Last reported at 2015-May-03 17:29 UTC. Time now 2015-May-04 11:02 UTC.
Position S 37°19' E 150°21'.

Length 294 m; draft 9.5 m.

Type: Ship (hazmat cat C). MMSI: 538002955.

Date/timePositionNaut miles runAvg speedWind from/ knotsBaromVisibWave heightAir tempDewpointWater temp
2015-May-03 17:29S 37°19' E 150°21'1312.2
2015-May-03 16:24S 37°32' E 150°16'1112.1
2015-May-03 15:28S 37°40' E 150°07'1112.5
2015-May-03 14:33S 37°48' E 149°56'1312.9
2015-May-03 13:32S 37°56' E 149°43'2712.4
2015-May-03 11:19S 38°12' E 149°15'2212.7
2015-May-03 09:34S 38°25' E 148°52'1413.0
2015-May-03 08:29S 38°34' E 148°38'1213.0
2015-May-03 07:33S 38°41' E 148°25'2713.2
2015-May-03 05:32S 38°53' E 147°54'1713.8
2015-May-03 04:16S 38°59' E 147°33'2313.6
2015-May-03 02:34S 39°07' E 147°05'1313.0
2015-May-03 01:33S 39°12' E 146°50'1312.9
2015-May-03 00:33S 39°17' E 146°34'1212.5
2015-May-02 23:34S 39°17' E 146°18'1212.4
2015-May-02 22:34S 39°16' E 146°02'1312.8
2015-May-02 21:33S 39°09' E 145°48'79 1.8
2015-May-01 02:20S 38°29' E 144°22'912.0
2015-May-01 01:33S 38°35' E 144°13'1211.9
2015-May-01 00:33S 38°43' E 144°01'1211.8
2015-Apr-30 23:32S 38°51' E 143°50'1111.4
2015-Apr-30 22:33S 38°57' E 143°38'1212.0
2015-Apr-30 21:33S 38°58' E 143°22'1212.0
2015-Apr-30 20:33S 38°60' E 143°07'1312.1
2015-Apr-30 19:31S 39°02' E 142°51'1212.6
2015-Apr-30 18:33S 39°04' E 142°36'1612.2
2015-Apr-30 17:15S 39°07' E 142°15'811.4
2015-Apr-30 16:33S 39°08' E 142°05'1212.0
2015-Apr-30 15:33S 39°09' E 141°50'1312.0
2015-Apr-30 14:30S 39°12' E 141°34'2411.9
2015-Apr-30 12:28S 39°17' E 141°03'  

Dump ship's entire track history